Terminal Aerodrome Forecast
Issued by NWS Mt. Holly, NJ

Home | Current Version | Previous Version | Text Only | Print | Product List | Glossary On
Versions: 1 2 3 4 5 6 7 8 9 10 11 12 13 14 15 16 17 18
000
FTAK31 PANC 231733
TAFABE
TAF
PABE 231733Z 2318/2418 15007KT P6SM FEW005 OVC040
     FM240000 15010G20KT P6SM VCSH BKN040
     FM240300 13013G20KT P6SM OVC050
     FM241500 13015G25KT 4SM -RA BR SCT010 BKN025 OVC050=

USA.gov is the U.S. government's official web portal to all federal, state and local government web resources and services.